sensor_id;sensor_type;location;lat;lon;timestamp;temperature;humidity
71039;SHT30;58692;43.212;27.908;2023-12-22T00:00:19;4.29;84.35
71039;SHT30;58692;43.212;27.908;2023-12-22T00:02:45;4.25;84.50
71039;SHT30;58692;43.212;27.908;2023-12-22T00:05:10;4.35;84.36
71039;SHT30;58692;43.212;27.908;2023-12-22T00:07:36;4.36;84.40
71039;SHT30;58692;43.212;27.908;2023-12-22T00:10:01;4.35;84.31
71039;SHT30;58692;43.212;27.908;2023-12-22T00:12:27;4.39;84.05
71039;SHT30;58692;43.212;27.908;2023-12-22T00:14:53;4.38;84.11
71039;SHT30;58692;43.212;27.908;2023-12-22T00:17:19;4.38;84.11
71039;SHT30;58692;43.212;27.908;2023-12-22T00:19:45;4.39;84.23
71039;SHT30;58692;43.212;27.908;2023-12-22T00:22:10;4.38;84.02
71039;SHT30;58692;43.212;27.908;2023-12-22T00:24:36;4.41;83.85
71039;SHT30;58692;43.212;27.908;2023-12-22T00:27:01;4.39;83.99
71039;SHT30;58692;43.212;27.908;2023-12-22T00:29:28;4.36;84.03
71039;SHT30;58692;43.212;27.908;2023-12-22T00:31:54;4.36;83.84
71039;SHT30;58692;43.212;27.908;2023-12-22T00:34:22;4.36;83.89
71039;SHT30;58692;43.212;27.908;2023-12-22T00:36:47;4.38;83.77
71039;SHT30;58692;43.212;27.908;2023-12-22T00:39:13;4.42;83.69
71039;SHT30;58692;43.212;27.908;2023-12-22T00:41:39;4.41;83.68
71039;SHT30;58692;43.212;27.908;2023-12-22T00:44:05;4.42;83.48
71039;SHT30;58692;43.212;27.908;2023-12-22T00:46:30;4.38;83.48
71039;SHT30;58692;43.212;27.908;2023-12-22T00:48:56;4.19;83.89
71039;SHT30;58692;43.212;27.908;2023-12-22T00:51:21;4.16;83.86
71039;SHT30;58692;43.212;27.908;2023-12-22T00:53:47;4.15;83.88
71039;SHT30;58692;43.212;27.908;2023-12-22T00:56:13;3.98;84.33
71039;SHT30;58692;43.212;27.908;2023-12-22T00:58:39;3.98;84.37
71039;SHT30;58692;43.212;27.908;2023-12-22T01:01:05;3.87;84.75
71039;SHT30;58692;43.212;27.908;2023-12-22T01:03:31;3.67;85.77
71039;SHT30;58692;43.212;27.908;2023-12-22T01:05:56;3.75;85.56
71039;SHT30;58692;43.212;27.908;2023-12-22T01:08:22;3.73;85.73
71039;SHT30;58692;43.212;27.908;2023-12-22T01:10:48;3.71;85.80
71039;SHT30;58692;43.212;27.908;2023-12-22T01:13:14;3.71;85.90
71039;SHT30;58692;43.212;27.908;2023-12-22T01:15:40;3.57;86.54
71039;SHT30;58692;43.212;27.908;2023-12-22T01:18:05;3.49;86.86
71039;SHT30;58692;43.212;27.908;2023-12-22T01:20:31;3.46;87.12
71039;SHT30;58692;43.212;27.908;2023-12-22T01:22:57;3.44;87.33
71039;SHT30;58692;43.212;27.908;2023-12-22T01:25:22;3.49;87.42
71039;SHT30;58692;43.212;27.908;2023-12-22T01:27:48;3.49;87.50
71039;SHT30;58692;43.212;27.908;2023-12-22T01:30:17;3.52;87.29
71039;SHT30;58692;43.212;27.908;2023-12-22T01:32:44;3.52;87.25
71039;SHT30;58692;43.212;27.908;2023-12-22T01:35:09;3.44;87.48
71039;SHT30;58692;43.212;27.908;2023-12-22T01:37:37;3.53;87.24
71039;SHT30;58692;43.212;27.908;2023-12-22T01:40:03;3.49;87.13
71039;SHT30;58692;43.212;27.908;2023-12-22T01:42:29;3.42;87.30
71039;SHT30;58692;43.212;27.908;2023-12-22T01:44:55;3.37;87.63
71039;SHT30;58692;43.212;27.908;2023-12-22T01:47:20;3.42;87.47
71039;SHT30;58692;43.212;27.908;2023-12-22T01:49:47;3.43;87.69
71039;SHT30;58692;43.212;27.908;2023-12-22T01:52:13;3.42;87.75
71039;SHT30;58692;43.212;27.908;2023-12-22T01:54:39;3.42;87.78
71039;SHT30;58692;43.212;27.908;2023-12-22T01:57:05;3.40;88.05
71039;SHT30;58692;43.212;27.908;2023-12-22T01:59:32;3.32;88.28
71039;SHT30;58692;43.212;27.908;2023-12-22T02:02:01;3.33;88.22
71039;SHT30;58692;43.212;27.908;2023-12-22T02:04:27;3.34;88.31
71039;SHT30;58692;43.212;27.908;2023-12-22T02:06:54;3.40;87.99
71039;SHT30;58692;43.212;27.908;2023-12-22T02:09:20;3.44;87.86
71039;SHT30;58692;43.212;27.908;2023-12-22T02:11:45;3.32;88.08
71039;SHT30;58692;43.212;27.908;2023-12-22T02:14:11;3.34;87.89
71039;SHT30;58692;43.212;27.908;2023-12-22T02:19:15;3.39;87.42
71039;SHT30;58692;43.212;27.908;2023-12-22T02:22:03;3.40;87.41
71039;SHT30;58692;43.212;27.908;2023-12-22T02:24:30;3.40;87.29
71039;SHT30;58692;43.212;27.908;2023-12-22T02:29:45;3.36;87.32
71039;SHT30;58692;43.212;27.908;2023-12-22T02:32:19;3.43;87.12
71039;SHT30;58692;43.212;27.908;2023-12-22T02:34:49;3.46;86.76
71039;SHT30;58692;43.212;27.908;2023-12-22T02:37:16;3.49;86.77
71039;SHT30;58692;43.212;27.908;2023-12-22T02:39:42;3.50;86.53
71039;SHT30;58692;43.212;27.908;2023-12-22T02:42:08;3.49;86.56
71039;SHT30;58692;43.212;27.908;2023-12-22T02:44:35;3.47;86.55
71039;SHT30;58692;43.212;27.908;2023-12-22T02:47:01;3.49;86.55
71039;SHT30;58692;43.212;27.908;2023-12-22T02:49:26;3.50;86.46
71039;SHT30;58692;43.212;27.908;2023-12-22T02:51:52;3.39;86.78
71039;SHT30;58692;43.212;27.908;2023-12-22T02:54:17;3.30;86.83
71039;SHT30;58692;43.212;27.908;2023-12-22T02:56:46;3.15;87.70
71039;SHT30;58692;43.212;27.908;2023-12-22T02:59:11;3.16;87.92
71039;SHT30;58692;43.212;27.908;2023-12-22T03:01:37;3.16;87.79
71039;SHT30;58692;43.212;27.908;2023-12-22T03:04:02;3.24;87.61
71039;SHT30;58692;43.212;27.908;2023-12-22T03:06:28;3.32;87.56
71039;SHT30;58692;43.212;27.908;2023-12-22T03:08:54;3.30;87.71
71039;SHT30;58692;43.212;27.908;2023-12-22T03:11:19;3.24;87.89
71039;SHT30;58692;43.212;27.908;2023-12-22T03:13:45;3.18;88.17
71039;SHT30;58692;43.212;27.908;2023-12-22T03:16:11;3.24;87.98
71039;SHT30;58692;43.212;27.908;2023-12-22T03:18:38;3.19;88.23
71039;SHT30;58692;43.212;27.908;2023-12-22T03:21:04;3.20;88.28
71039;SHT30;58692;43.212;27.908;2023-12-22T03:23:30;3.18;88.27
71039;SHT30;58692;43.212;27.908;2023-12-22T03:25:56;3.23;88.24
71039;SHT30;58692;43.212;27.908;2023-12-22T03:28:21;3.24;88.22
71039;SHT30;58692;43.212;27.908;2023-12-22T03:30:47;3.23;88.38
71039;SHT30;58692;43.212;27.908;2023-12-22T03:33:13;3.24;88.37
71039;SHT30;58692;43.212;27.908;2023-12-22T03:35:38;3.19;88.76
71039;SHT30;58692;43.212;27.908;2023-12-22T03:38:04;3.15;89.28
71039;SHT30;58692;43.212;27.908;2023-12-22T03:40:29;3.20;89.22
71039;SHT30;58692;43.212;27.908;2023-12-22T03:42:55;3.24;89.21
71039;SHT30;58692;43.212;27.908;2023-12-22T03:45:21;3.33;89.13
71039;SHT30;58692;43.212;27.908;2023-12-22T03:47:49;3.30;89.04
71039;SHT30;58692;43.212;27.908;2023-12-22T03:50:15;3.30;88.98
71039;SHT30;58692;43.212;27.908;2023-12-22T03:52:41;3.29;89.25
71039;SHT30;58692;43.212;27.908;2023-12-22T03:55:06;3.29;89.10
71039;SHT30;58692;43.212;27.908;2023-12-22T03:57:32;3.27;89.09
71039;SHT30;58692;43.212;27.908;2023-12-22T03:59:58;3.34;88.97
71039;SHT30;58692;43.212;27.908;2023-12-22T04:02:23;3.26;88.71
71039;SHT30;58692;43.212;27.908;2023-12-22T04:04:49;3.29;88.76
71039;SHT30;58692;43.212;27.908;2023-12-22T04:07:14;3.24;88.67
71039;SHT30;58692;43.212;27.908;2023-12-22T04:09:40;3.29;88.25
71039;SHT30;58692;43.212;27.908;2023-12-22T04:12:08;3.36;88.05
71039;SHT30;58692;43.212;27.908;2023-12-22T04:14:34;3.32;88.04
71039;SHT30;58692;43.212;27.908;2023-12-22T04:16:59;3.30;87.83
71039;SHT30;58692;43.212;27.908;2023-12-22T04:19:25;3.27;87.64
71039;SHT30;58692;43.212;27.908;2023-12-22T04:21:51;3.26;87.59
71039;SHT30;58692;43.212;27.908;2023-12-22T04:24:16;3.26;87.49
71039;SHT30;58692;43.212;27.908;2023-12-22T04:26:42;3.20;87.44
71039;SHT30;58692;43.212;27.908;2023-12-22T04:29:07;3.26;87.29
71039;SHT30;58692;43.212;27.908;2023-12-22T04:31:33;3.30;87.08
71039;SHT30;58692;43.212;27.908;2023-12-22T04:33:58;3.22;86.97
71039;SHT30;58692;43.212;27.908;2023-12-22T04:36:24;3.19;86.89
71039;SHT30;58692;43.212;27.908;2023-12-22T04:38:50;3.26;86.44
71039;SHT30;58692;43.212;27.908;2023-12-22T04:41:15;3.23;86.31
71039;SHT30;58692;43.212;27.908;2023-12-22T04:43:41;3.24;86.14
71039;SHT30;58692;43.212;27.908;2023-12-22T04:46:06;3.20;86.27
71039;SHT30;58692;43.212;27.908;2023-12-22T04:48:33;3.06;86.68
71039;SHT30;58692;43.212;27.908;2023-12-22T04:50:59;3.03;87.14
71039;SHT30;58692;43.212;27.908;2023-12-22T04:53:24;3.02;87.02
71039;SHT30;58692;43.212;27.908;2023-12-22T04:55:50;3.09;87.18
71039;SHT30;58692;43.212;27.908;2023-12-22T04:58:15;3.08;87.25
71039;SHT30;58692;43.212;27.908;2023-12-22T05:00:41;3.05;87.38
71039;SHT30;58692;43.212;27.908;2023-12-22T05:03:07;3.10;87.49
71039;SHT30;58692;43.212;27.908;2023-12-22T05:05:32;2.91;88.06
71039;SHT30;58692;43.212;27.908;2023-12-22T05:07:58;2.95;88.17
71039;SHT30;58692;43.212;27.908;2023-12-22T05:10:24;2.88;88.58
71039;SHT30;58692;43.212;27.908;2023-12-22T05:12:50;3.02;88.34
71039;SHT30;58692;43.212;27.908;2023-12-22T05:15:15;2.84;88.81
71039;SHT30;58692;43.212;27.908;2023-12-22T05:17:41;2.99;88.69
71039;SHT30;58692;43.212;27.908;2023-12-22T05:20:07;2.84;88.76
71039;SHT30;58692;43.212;27.908;2023-12-22T05:22:36;2.89;89.00
71039;SHT30;58692;43.212;27.908;2023-12-22T05:25:03;2.95;88.81
71039;SHT30;58692;43.212;27.908;2023-12-22T05:27:28;2.91;88.61
71039;SHT30;58692;43.212;27.908;2023-12-22T05:29:57;2.72;88.74
71039;SHT30;58692;43.212;27.908;2023-12-22T05:32:27;2.87;88.62
71039;SHT30;58692;43.212;27.908;2023-12-22T05:34:53;2.79;89.00
71039;SHT30;58692;43.212;27.908;2023-12-22T05:37:18;2.85;88.81
71039;SHT30;58692;43.212;27.908;2023-12-22T05:39:44;2.95;88.90
71039;SHT30;58692;43.212;27.908;2023-12-22T05:42:11;2.84;88.91
71039;SHT30;58692;43.212;27.908;2023-12-22T05:44:36;2.87;88.79
71039;SHT30;58692;43.212;27.908;2023-12-22T05:47:04;2.68;89.88
71039;SHT30;58692;43.212;27.908;2023-12-22T05:49:30;2.72;88.96
71039;SHT30;58692;43.212;27.908;2023-12-22T05:51:56;2.77;89.00
71039;SHT30;58692;43.212;27.908;2023-12-22T05:54:21;2.88;88.96
71039;SHT30;58692;43.212;27.908;2023-12-22T05:56:54;3.06;88.92
71039;SHT30;58692;43.212;27.908;2023-12-22T05:59:20;3.16;88.46
71039;SHT30;58692;43.212;27.908;2023-12-22T06:01:46;3.12;88.31
71039;SHT30;58692;43.212;27.908;2023-12-22T06:04:11;3.22;87.98
71039;SHT30;58692;43.212;27.908;2023-12-22T06:06:37;3.12;88.02
71039;SHT30;58692;43.212;27.908;2023-12-22T06:09:04;3.32;87.83
71039;SHT30;58692;43.212;27.908;2023-12-22T06:11:30;3.40;87.95
71039;SHT30;58692;43.212;27.908;2023-12-22T06:13:58;3.44;86.84
71039;SHT30;58692;43.212;27.908;2023-12-22T06:16:24;3.39;87.25
71039;SHT30;58692;43.212;27.908;2023-12-22T06:18:50;3.37;86.99
71039;SHT30;58692;43.212;27.908;2023-12-22T06:21:18;3.42;87.29
71039;SHT30;58692;43.212;27.908;2023-12-22T06:23:44;3.50;87.10
71039;SHT30;58692;43.212;27.908;2023-12-22T06:26:11;3.50;86.63
71039;SHT30;58692;43.212;27.908;2023-12-22T06:28:37;3.61;86.13
71039;SHT30;58692;43.212;27.908;2023-12-22T06:31:05;3.69;86.68
71039;SHT30;58692;43.212;27.908;2023-12-22T06:33:34;4.08;85.78
71039;SHT30;58692;43.212;27.908;2023-12-22T06:35:59;4.38;84.62
71039;SHT30;58692;43.212;27.908;2023-12-22T06:38:25;4.67;83.47
71039;SHT30;58692;43.212;27.908;2023-12-22T06:40:51;4.79;83.54
71039;SHT30;58692;43.212;27.908;2023-12-22T06:43:17;4.65;83.30
71039;SHT30;58692;43.212;27.908;2023-12-22T06:45:43;4.50;83.11
71039;SHT30;58692;43.212;27.908;2023-12-22T06:48:14;4.57;83.61
71039;SHT30;58692;43.212;27.908;2023-12-22T06:50:40;4.36;83.81
71039;SHT30;58692;43.212;27.908;2023-12-22T06:53:25;4.35;84.15
71039;SHT30;58692;43.212;27.908;2023-12-22T06:55:52;4.26;85.12
71039;SHT30;58692;43.212;27.908;2023-12-22T06:58:18;4.29;84.81
71039;SHT30;58692;43.212;27.908;2023-12-22T07:00:46;4.22;84.38
71039;SHT30;58692;43.212;27.908;2023-12-22T07:03:12;4.25;85.08
71039;SHT30;58692;43.212;27.908;2023-12-22T07:05:38;4.24;85.27
71039;SHT30;58692;43.212;27.908;2023-12-22T07:08:04;4.28;85.43
71039;SHT30;58692;43.212;27.908;2023-12-22T07:10:30;4.35;85.25
71039;SHT30;58692;43.212;27.908;2023-12-22T07:12:56;4.41;85.23
71039;SHT30;58692;43.212;27.908;2023-12-22T07:15:22;4.29;84.27
71039;SHT30;58692;43.212;27.908;2023-12-22T07:17:47;4.34;85.15
71039;SHT30;58692;43.212;27.908;2023-12-22T07:20:13;4.45;85.14
71039;SHT30;58692;43.212;27.908;2023-12-22T07:22:39;4.52;84.90
71039;SHT30;58692;43.212;27.908;2023-12-22T07:25:05;4.60;84.29
71039;SHT30;58692;43.212;27.908;2023-12-22T07:27:34;4.72;84.16
71039;SHT30;58692;43.212;27.908;2023-12-22T07:29:59;4.81;84.10
71039;SHT30;58692;43.212;27.908;2023-12-22T07:32:28;4.84;83.92
71039;SHT30;58692;43.212;27.908;2023-12-22T07:34:55;4.91;83.81
71039;SHT30;58692;43.212;27.908;2023-12-22T07:37:20;4.94;83.82
71039;SHT30;58692;43.212;27.908;2023-12-22T07:39:46;5.06;83.59
71039;SHT30;58692;43.212;27.908;2023-12-22T07:42:12;5.09;83.22
71039;SHT30;58692;43.212;27.908;2023-12-22T07:44:38;5.09;83.27
71039;SHT30;58692;43.212;27.908;2023-12-22T07:47:03;5.20;83.15
71039;SHT30;58692;43.212;27.908;2023-12-22T07:49:30;5.32;82.88
71039;SHT30;58692;43.212;27.908;2023-12-22T07:51:56;5.41;82.62
71039;SHT30;58692;43.212;27.908;2023-12-22T07:54:21;5.52;82.41
71039;SHT30;58692;43.212;27.908;2023-12-22T07:56:48;5.71;82.16
71039;SHT30;58692;43.212;27.908;2023-12-22T07:59:17;5.81;81.63
71039;SHT30;58692;43.212;27.908;2023-12-22T08:01:50;5.96;81.16
71039;SHT30;58692;43.212;27.908;2023-12-22T08:04:15;6.09;81.27
71039;SHT30;58692;43.212;27.908;2023-12-22T08:06:41;6.22;80.67
71039;SHT30;58692;43.212;27.908;2023-12-22T08:09:07;6.34;81.10
71039;SHT30;58692;43.212;27.908;2023-12-22T08:11:36;6.54;80.83
71039;SHT30;58692;43.212;27.908;2023-12-22T08:14:02;6.88;80.17
71039;SHT30;58692;43.212;27.908;2023-12-22T08:16:29;6.97;79.60
71039;SHT30;58692;43.212;27.908;2023-12-22T08:18:54;7.08;79.46
71039;SHT30;58692;43.212;27.908;2023-12-22T08:21:26;6.94;79.84
71039;SHT30;58692;43.212;27.908;2023-12-22T08:23:55;7.01;79.88
71039;SHT30;58692;43.212;27.908;2023-12-22T08:26:21;7.11;79.80
71039;SHT30;58692;43.212;27.908;2023-12-22T08:28:47;7.07;80.08
71039;SHT30;58692;43.212;27.908;2023-12-22T08:31:15;7.08;80.26
71039;SHT30;58692;43.212;27.908;2023-12-22T08:33:41;6.85;80.87
71039;SHT30;58692;43.212;27.908;2023-12-22T08:36:08;6.81;81.56
71039;SHT30;58692;43.212;27.908;2023-12-22T08:38:34;6.66;82.34
71039;SHT30;58692;43.212;27.908;2023-12-22T08:41:04;6.50;83.37
71039;SHT30;58692;43.212;27.908;2023-12-22T08:43:30;6.50;83.54
71039;SHT30;58692;43.212;27.908;2023-12-22T08:45:56;6.58;83.42
71039;SHT30;58692;43.212;27.908;2023-12-22T08:48:22;6.58;83.04
71039;SHT30;58692;43.212;27.908;2023-12-22T08:50:48;6.50;82.68
71039;SHT30;58692;43.212;27.908;2023-12-22T08:53:13;6.56;79.23
71039;SHT30;58692;43.212;27.908;2023-12-22T08:58:36;6.78;76.42
71039;SHT30;58692;43.212;27.908;2023-12-22T09:01:02;6.84;76.22
71039;SHT30;58692;43.212;27.908;2023-12-22T09:03:33;6.91;75.98
71039;SHT30;58692;43.212;27.908;2023-12-22T09:05:59;6.98;75.55
71039;SHT30;58692;43.212;27.908;2023-12-22T09:08:25;7.05;75.21
71039;SHT30;58692;43.212;27.908;2023-12-22T09:10:58;7.02;75.25
71039;SHT30;58692;43.212;27.908;2023-12-22T09:13:26;7.08;75.01
71039;SHT30;58692;43.212;27.908;2023-12-22T09:15:52;7.11;74.87
71039;SHT30;58692;43.212;27.908;2023-12-22T09:18:26;7.15;75.19
71039;SHT30;58692;43.212;27.908;2023-12-22T09:20:54;7.16;75.59
71039;SHT30;58692;43.212;27.908;2023-12-22T09:23:20;7.18;75.61
71039;SHT30;58692;43.212;27.908;2023-12-22T09:25:47;7.16;76.35
71039;SHT30;58692;43.212;27.908;2023-12-22T09:28:13;7.16;77.23
71039;SHT30;58692;43.212;27.908;2023-12-22T09:30:39;7.19;78.39
71039;SHT30;58692;43.212;27.908;2023-12-22T09:33:05;7.21;80.40
71039;SHT30;58692;43.212;27.908;2023-12-22T09:35:31;7.09;81.65
71039;SHT30;58692;43.212;27.908;2023-12-22T09:37:57;6.85;82.31
71039;SHT30;58692;43.212;27.908;2023-12-22T09:40:23;6.76;82.74
71039;SHT30;58692;43.212;27.908;2023-12-22T09:42:49;6.71;83.50
71039;SHT30;58692;43.212;27.908;2023-12-22T09:45:17;6.71;84.08
71039;SHT30;58692;43.212;27.908;2023-12-22T09:47:44;6.78;83.79
71039;SHT30;58692;43.212;27.908;2023-12-22T09:50:11;6.80;83.71
71039;SHT30;58692;43.212;27.908;2023-12-22T09:52:40;6.87;84.08
71039;SHT30;58692;43.212;27.908;2023-12-22T09:55:07;6.97;83.75
71039;SHT30;58692;43.212;27.908;2023-12-22T09:57:35;6.95;84.04
71039;SHT30;58692;43.212;27.908;2023-12-22T10:00:02;6.98;84.30
71039;SHT30;58692;43.212;27.908;2023-12-22T10:02:33;7.09;83.91
71039;SHT30;58692;43.212;27.908;2023-12-22T10:04:59;7.09;83.88
71039;SHT30;58692;43.212;27.908;2023-12-22T10:07:25;7.22;83.21
71039;SHT30;58692;43.212;27.908;2023-12-22T10:09:52;7.23;82.94
71039;SHT30;58692;43.212;27.908;2023-12-22T10:12:21;7.42;82.88
71039;SHT30;58692;43.212;27.908;2023-12-22T10:14:47;7.55;82.12
71039;SHT30;58692;43.212;27.908;2023-12-22T10:17:15;7.67;81.39
71039;SHT30;58692;43.212;27.908;2023-12-22T10:19:44;7.83;81.39
71039;SHT30;58692;43.212;27.908;2023-12-22T10:22:10;7.91;80.00
71039;SHT30;58692;43.212;27.908;2023-12-22T10:27:04;8.01;77.76
71039;SHT30;58692;43.212;27.908;2023-12-22T10:29:31;8.18;77.29
71039;SHT30;58692;43.212;27.908;2023-12-22T10:32:01;8.30;77.40
71039;SHT30;58692;43.212;27.908;2023-12-22T10:34:27;8.37;76.93
71039;SHT30;58692;43.212;27.908;2023-12-22T10:36:59;8.42;76.66
71039;SHT30;58692;43.212;27.908;2023-12-22T10:39:29;8.49;76.32
71039;SHT30;58692;43.212;27.908;2023-12-22T10:41:56;8.52;75.49
71039;SHT30;58692;43.212;27.908;2023-12-22T10:44:26;8.59;74.84
71039;SHT30;58692;43.212;27.908;2023-12-22T10:46:52;8.59;73.44
71039;SHT30;58692;43.212;27.908;2023-12-22T10:49:20;8.64;72.84
71039;SHT30;58692;43.212;27.908;2023-12-22T10:51:47;8.69;73.01
71039;SHT30;58692;43.212;27.908;2023-12-22T10:54:13;8.72;72.63
71039;SHT30;58692;43.212;27.908;2023-12-22T10:56:40;8.75;72.38
71039;SHT30;58692;43.212;27.908;2023-12-22T10:59:07;8.76;72.19
71039;SHT30;58692;43.212;27.908;2023-12-22T11:01:36;8.82;72.05
71039;SHT30;58692;43.212;27.908;2023-12-22T11:04:09;8.90;71.84
71039;SHT30;58692;43.212;27.908;2023-12-22T11:06:37;8.86;71.27
71039;SHT30;58692;43.212;27.908;2023-12-22T11:09:06;8.89;71.30
71039;SHT30;58692;43.212;27.908;2023-12-22T11:11:34;8.82;70.70
71039;SHT30;58692;43.212;27.908;2023-12-22T11:14:01;8.80;70.62
71039;SHT30;58692;43.212;27.908;2023-12-22T11:16:29;8.80;70.99
71039;SHT30;58692;43.212;27.908;2023-12-22T11:18:55;8.86;70.80
71039;SHT30;58692;43.212;27.908;2023-12-22T11:21:24;8.86;70.86
71039;SHT30;58692;43.212;27.908;2023-12-22T11:23:51;8.83;70.54
71039;SHT30;58692;43.212;27.908;2023-12-22T11:26:18;8.86;70.59
71039;SHT30;58692;43.212;27.908;2023-12-22T11:28:49;8.90;70.55
71039;SHT30;58692;43.212;27.908;2023-12-22T11:31:16;8.96;70.26
71039;SHT30;58692;43.212;27.908;2023-12-22T11:33:45;8.96;69.91
71039;SHT30;58692;43.212;27.908;2023-12-22T11:36:12;9.02;69.64
71039;SHT30;58692;43.212;27.908;2023-12-22T11:38:40;9.06;69.50
71039;SHT30;58692;43.212;27.908;2023-12-22T11:41:09;9.09;69.40
71039;SHT30;58692;43.212;27.908;2023-12-22T11:43:37;9.15;70.07
71039;SHT30;58692;43.212;27.908;2023-12-22T11:46:03;9.13;70.11
71039;SHT30;58692;43.212;27.908;2023-12-22T11:48:30;9.15;70.56
71039;SHT30;58692;43.212;27.908;2023-12-22T11:50:55;9.13;70.89
71039;SHT30;58692;43.212;27.908;2023-12-22T11:53:23;9.15;72.11
71039;SHT30;58692;43.212;27.908;2023-12-22T11:55:57;9.27;72.54
71039;SHT30;58692;43.212;27.908;2023-12-22T11:58:42;9.36;72.68
71039;SHT30;58692;43.212;27.908;2023-12-22T12:01:11;9.36;72.65
71039;SHT30;58692;43.212;27.908;2023-12-22T12:03:42;9.43;72.52
71039;SHT30;58692;43.212;27.908;2023-12-22T12:06:21;9.47;72.34
71039;SHT30;58692;43.212;27.908;2023-12-22T12:08:47;9.55;71.88
71039;SHT30;58692;43.212;27.908;2023-12-22T12:11:14;9.61;71.89
71039;SHT30;58692;43.212;27.908;2023-12-22T12:13:45;9.73;71.56
71039;SHT30;58692;43.212;27.908;2023-12-22T12:16:13;9.68;70.97
71039;SHT30;58692;43.212;27.908;2023-12-22T12:18:39;9.77;70.90
71039;SHT30;58692;43.212;27.908;2023-12-22T12:21:07;9.80;70.80
71039;SHT30;58692;43.212;27.908;2023-12-22T12:23:35;9.81;70.85
71039;SHT30;58692;43.212;27.908;2023-12-22T12:26:01;9.73;70.42
71039;SHT30;58692;43.212;27.908;2023-12-22T12:28:29;9.70;70.10
71039;SHT30;58692;43.212;27.908;2023-12-22T12:30:58;9.62;70.65
71039;SHT30;58692;43.212;27.908;2023-12-22T12:33:28;9.70;70.72
71039;SHT30;58692;43.212;27.908;2023-12-22T12:35:56;9.70;70.89
71039;SHT30;58692;43.212;27.908;2023-12-22T12:38:28;9.48;72.09
71039;SHT30;58692;43.212;27.908;2023-12-22T12:40:59;9.50;72.36
71039;SHT30;58692;43.212;27.908;2023-12-22T12:43:25;9.48;72.63
71039;SHT30;58692;43.212;27.908;2023-12-22T12:45:53;9.31;73.73
71039;SHT30;58692;43.212;27.908;2023-12-22T12:48:21;9.27;74.03
71039;SHT30;58692;43.212;27.908;2023-12-22T12:50:47;9.23;74.46
71039;SHT30;58692;43.212;27.908;2023-12-22T12:53:13;9.22;74.44
71039;SHT30;58692;43.212;27.908;2023-12-22T12:55:39;9.16;73.99
71039;SHT30;58692;43.212;27.908;2023-12-22T12:58:04;9.12;74.05
71039;SHT30;58692;43.212;27.908;2023-12-22T13:00:31;9.15;74.06
71039;SHT30;58692;43.212;27.908;2023-12-22T13:03:02;9.05;74.20
71039;SHT30;58692;43.212;27.908;2023-12-22T13:05:28;9.03;74.20
71039;SHT30;58692;43.212;27.908;2023-12-22T13:08:07;8.95;74.43
71039;SHT30;58692;43.212;27.908;2023-12-22T13:10:34;8.97;74.03
71039;SHT30;58692;43.212;27.908;2023-12-22T13:13:00;8.97;74.15
71039;SHT30;58692;43.212;27.908;2023-12-22T13:15:26;8.92;74.34
71039;SHT30;58692;43.212;27.908;2023-12-22T13:17:51;8.93;74.52
71039;SHT30;58692;43.212;27.908;2023-12-22T13:20:17;8.99;74.87
71039;SHT30;58692;43.212;27.908;2023-12-22T13:22:44;9.10;75.00
71039;SHT30;58692;43.212;27.908;2023-12-22T13:25:09;9.19;75.14
71039;SHT30;58692;43.212;27.908;2023-12-22T13:27:48;9.36;75.06
71039;SHT30;58692;43.212;27.908;2023-12-22T13:30:38;9.43;75.09
71039;SHT30;58692;43.212;27.908;2023-12-22T13:33:07;9.52;74.78
71039;SHT30;58692;43.212;27.908;2023-12-22T13:35:34;9.57;74.71
71039;SHT30;58692;43.212;27.908;2023-12-22T13:38:05;9.64;74.78
71039;SHT30;58692;43.212;27.908;2023-12-22T13:40:32;9.62;74.91
71039;SHT30;58692;43.212;27.908;2023-12-22T13:42:58;9.68;74.77
71039;SHT30;58692;43.212;27.908;2023-12-22T13:45:25;9.70;74.85
71039;SHT30;58692;43.212;27.908;2023-12-22T13:47:51;9.67;75.10
71039;SHT30;58692;43.212;27.908;2023-12-22T13:50:17;9.71;75.23
71039;SHT30;58692;43.212;27.908;2023-12-22T13:52:44;9.67;75.41
71039;SHT30;58692;43.212;27.908;2023-12-22T13:57:36;9.60;75.56
71039;SHT30;58692;43.212;27.908;2023-12-22T14:00:24;9.70;75.12
71039;SHT30;58692;43.212;27.908;2023-12-22T14:02:49;9.70;75.15
71039;SHT30;58692;43.212;27.908;2023-12-22T14:05:16;9.71;75.27
71039;SHT30;58692;43.212;27.908;2023-12-22T14:07:44;9.70;75.37
71039;SHT30;58692;43.212;27.908;2023-12-22T14:10:10;9.65;75.57
71039;SHT30;58692;43.212;27.908;2023-12-22T14:12:36;9.62;75.84
71039;SHT30;58692;43.212;27.908;2023-12-22T14:17:32;9.61;76.01
71039;SHT30;58692;43.212;27.908;2023-12-22T14:19:58;9.61;75.93
71039;SHT30;58692;43.212;27.908;2023-12-22T14:22:23;9.58;76.14
71039;SHT30;58692;43.212;27.908;2023-12-22T14:24:50;9.57;76.19
71039;SHT30;58692;43.212;27.908;2023-12-22T14:27:16;9.55;76.06
71039;SHT30;58692;43.212;27.908;2023-12-22T14:29:44;9.54;76.13
71039;SHT30;58692;43.212;27.908;2023-12-22T14:32:10;9.48;76.25
71039;SHT30;58692;43.212;27.908;2023-12-22T14:34:38;9.44;76.21
71039;SHT30;58692;43.212;27.908;2023-12-22T14:37:04;9.44;76.10
71039;SHT30;58692;43.212;27.908;2023-12-22T14:39:29;9.44;75.81
71039;SHT30;58692;43.212;27.908;2023-12-22T14:41:56;9.43;75.41
71039;SHT30;58692;43.212;27.908;2023-12-22T14:44:22;9.44;74.63
71039;SHT30;58692;43.212;27.908;2023-12-22T14:46:49;9.40;74.54
71039;SHT30;58692;43.212;27.908;2023-12-22T14:49:14;9.43;74.06
71039;SHT30;58692;43.212;27.908;2023-12-22T14:51:40;9.41;72.94
71039;SHT30;58692;43.212;27.908;2023-12-22T14:54:07;9.47;72.11
71039;SHT30;58692;43.212;27.908;2023-12-22T14:56:34;9.41;72.02
71039;SHT30;58692;43.212;27.908;2023-12-22T14:59:00;9.39;71.93
71039;SHT30;58692;43.212;27.908;2023-12-22T15:01:26;9.39;71.90
71039;SHT30;58692;43.212;27.908;2023-12-22T15:03:52;9.34;71.93
71039;SHT30;58692;43.212;27.908;2023-12-22T15:06:18;9.26;72.16
71039;SHT30;58692;43.212;27.908;2023-12-22T15:08:44;9.26;71.98
71039;SHT30;58692;43.212;27.908;2023-12-22T15:11:10;9.26;72.02
71039;SHT30;58692;43.212;27.908;2023-12-22T15:13:37;9.20;72.26
71039;SHT30;58692;43.212;27.908;2023-12-22T15:16:05;9.17;72.37
71039;SHT30;58692;43.212;27.908;2023-12-22T15:18:31;9.13;72.54
71039;SHT30;58692;43.212;27.908;2023-12-22T15:20:56;9.09;72.69
71039;SHT30;58692;43.212;27.908;2023-12-22T15:23:22;9.07;72.92
71039;SHT30;58692;43.212;27.908;2023-12-22T15:25:47;9.03;73.12
71039;SHT30;58692;43.212;27.908;2023-12-22T15:28:13;8.99;73.12
71039;SHT30;58692;43.212;27.908;2023-12-22T15:30:39;9.00;72.92
71039;SHT30;58692;43.212;27.908;2023-12-22T15:33:05;9.05;72.76
71039;SHT30;58692;43.212;27.908;2023-12-22T15:35:31;9.02;72.73
71039;SHT30;58692;43.212;27.908;2023-12-22T15:37:56;9.02;72.80
71039;SHT30;58692;43.212;27.908;2023-12-22T15:40:22;8.93;73.02
71039;SHT30;58692;43.212;27.908;2023-12-22T15:42:48;8.90;72.84